Time;durP1;ratioP1;P1;durP2;ratioP2;P2;SDS_P1;SDS_P2;PMS_P1;PMS_P2;Temp;Humidity;BMP_temperature;BMP_pressure;BME280_temperature;BME280_humidity;BME280_pressure;Samples;Min_cycle;Max_cycle;Signal;HPM_P1;HPM_P2
2023/05/18 00:01:25;;;;;;;2.87;2.20;;;11.10;73.20;11.20;96974.00;;;;5034883;28;20203;-84
2023/05/18 00:03:53;;;;;;;3.07;2.40;;;11.10;73.30;11.20;96960.00;;;;5027303;28;20197;-84
2023/05/18 00:06:21;;;;;;;4.80;2.60;;;11.10;73.20;11.20;96962.00;;;;5023019;28;20197;-84
2023/05/18 00:08:48;;;;;;;2.97;2.57;;;11.10;73.30;11.20;96964.00;;;;5035634;28;20220;-84
2023/05/18 00:11:15;;;;;;;3.20;2.43;;;11.10;73.20;11.10;96957.00;;;;5032698;28;20197;-84
2023/05/18 00:13:43;;;;;;;3.43;2.10;;;11.10;73.10;11.10;96954.00;;;;5045902;28;20202;-84
2023/05/18 00:16:11;;;;;;;3.50;2.50;;;11.10;73.20;11.10;96960.00;;;;5040805;28;20195;-84
2023/05/18 00:18:39;;;;;;;2.73;2.20;;;11.10;73.20;11.10;96951.00;;;;5043325;28;20234;-83
2023/05/18 00:21:07;;;;;;;4.97;2.60;;;11.00;73.20;11.10;96946.00;;;;5033282;28;20549;-84
2023/05/18 00:23:38;;;;;;;3.83;2.53;;;11.00;73.50;11.10;96947.00;;;;5030415;28;20204;-85
2023/05/18 00:26:05;;;;;;;2.40;2.20;;;11.00;73.60;11.10;96939.00;;;;5031639;28;20201;-84
2023/05/18 00:28:33;;;;;;;4.03;2.13;;;11.00;73.60;11.10;96948.00;;;;5035007;28;20244;-84
2023/05/18 00:31:00;;;;;;;3.47;2.63;;;11.00;73.80;11.10;96946.00;;;;5033346;28;20282;-84
2023/05/18 00:33:27;;;;;;;3.50;2.30;;;11.00;74.60;11.00;96945.00;;;;5047925;28;20200;-83
2023/05/18 00:35:56;;;;;;;2.40;2.00;;;11.00;73.90;11.10;96943.00;;;;5035495;28;20224;-84
2023/05/18 00:38:23;;;;;;;3.17;2.53;;;11.00;74.00;11.10;96946.00;;;;5028964;28;20720;-85
2023/05/18 00:40:51;;;;;;;4.03;2.40;;;11.00;73.90;11.00;96947.00;;;;5037030;28;20277;-84
2023/05/18 00:43:18;;;;;;;5.43;3.00;;;11.00;74.00;11.00;96948.00;;;;5040191;28;20197;-84
2023/05/18 00:45:45;;;;;;;3.03;2.43;;;11.00;74.10;11.00;96940.00;;;;5029226;28;20212;-84
2023/05/18 00:48:13;;;;;;;5.23;2.50;;;11.00;74.10;11.00;96945.00;;;;5040516;28;20212;-84
2023/05/18 00:50:40;;;;;;;2.73;2.37;;;11.00;74.30;11.00;96939.00;;;;5051161;28;20196;-84
2023/05/18 00:53:10;;;;;;;3.90;2.40;;;11.00;74.30;11.00;96943.00;;;;5040282;28;20194;-84
2023/05/18 00:55:38;;;;;;;2.90;2.20;;;11.00;74.20;11.00;96950.00;;;;5041469;28;20217;-84
2023/05/18 00:58:05;;;;;;;3.00;2.57;;;11.00;74.30;11.00;96937.00;;;;5038240;28;20296;-84
2023/05/18 01:00:36;;;;;;;4.03;2.63;;;11.00;74.30;11.00;96936.00;;;;5043101;28;20207;-83
2023/05/18 01:03:04;;;;;;;3.60;2.87;;;11.00;74.40;11.00;96941.00;;;;5042807;28;20677;-84
2023/05/18 01:05:31;;;;;;;3.40;2.47;;;11.00;74.40;11.00;96942.00;;;;5033190;28;20204;-84
2023/05/18 01:07:59;;;;;;;4.70;2.90;;;11.00;74.60;11.00;96938.00;;;;5039839;28;20220;-84
2023/05/18 01:10:28;;;;;;;2.50;2.03;;;11.00;74.60;11.10;96938.00;;;;5033979;28;20192;-84
2023/05/18 01:13:02;;;;;;;4.57;2.70;;;11.00;74.70;11.10;96939.00;;;;5032392;28;20204;-84
2023/05/18 01:15:35;;;;;;;4.87;2.77;;;11.00;74.60;11.10;96938.00;;;;5031073;28;20222;-84
2023/05/18 01:18:14;;;;;;;5.63;3.00;;;11.00;74.50;11.10;96933.00;;;;5045290;28;20209;-84
2023/05/18 01:20:47;;;;;;;3.13;2.53;;;11.10;74.60;11.10;96938.00;;;;5033916;28;20654;-84
2023/05/18 01:23:53;;;;;;;4.33;2.80;;;11.00;74.60;11.10;96930.00;;;;5034620;28;20204;-84
2023/05/18 01:26:28;;;;;;;3.20;2.40;;;11.10;74.40;11.10;96941.00;;;;5038178;28;20205;-84
2023/05/18 01:29:00;;;;;;;2.37;2.17;;;11.10;74.60;11.10;96945.00;;;;5043619;28;20233;-84
2023/05/18 01:31:27;;;;;;;4.20;2.43;;;11.10;74.60;11.10;96944.00;;;;5035626;28;20221;-84
2023/05/18 01:33:55;;;;;;;2.93;2.57;;;11.10;74.60;11.20;96944.00;;;;5033011;28;20192;-84
2023/05/18 01:36:22;;;;;;;4.27;2.40;;;11.10;74.70;11.20;96940.00;;;;5033628;28;20697;-84
2023/05/18 01:38:51;;;;;;;3.00;2.70;;;11.10;74.70;11.20;96943.00;;;;5044747;28;20591;-84
2023/05/18 01:41:24;;;;;;;4.27;2.70;;;11.10;74.50;11.20;96948.00;;;;5040857;28;20194;-84
2023/05/18 01:44:03;;;;;;;3.83;2.50;;;11.10;74.40;11.20;96947.00;;;;5036321;28;20228;-84
2023/05/18 01:46:48;;;;;;;6.27;2.97;;;11.20;74.30;11.20;96939.00;;;;5023725;28;20208;-84
2023/05/18 01:49:26;;;;;;;2.97;2.63;;;11.20;74.30;11.20;96932.00;;;;5033962;28;20217;-84
2023/05/18 01:51:56;;;;;;;2.93;2.23;;;11.10;74.20;11.20;96928.00;;;;5036577;28;20197;-84
2023/05/18 01:54:25;;;;;;;2.93;2.67;;;11.10;74.30;11.20;96926.00;;;;5046754;28;20193;-84
2023/05/18 01:56:56;;;;;;;4.13;2.83;;;11.20;74.40;11.20;96933.00;;;;5034622;28;20193;-84
2023/05/18 01:59:24;;;;;;;5.30;3.10;;;11.10;74.20;11.20;96933.00;;;;5025462;28;20270;-84
2023/05/18 02:01:52;;;;;;;4.03;2.63;;;11.20;74.20;11.20;96925.00;;;;5043145;28;20232;-84
2023/05/18 02:04:19;;;;;;;3.47;2.27;;;11.20;74.20;11.20;96929.00;;;;5043801;28;20294;-84
2023/05/18 02:06:46;;;;;;;4.03;2.83;;;11.20;74.20;11.20;96923.00;;;;5032064;28;20717;-84
2023/05/18 02:09:14;;;;;;;2.40;2.20;;;11.20;74.20;11.20;96926.00;;;;5044910;28;20213;-84
2023/05/18 02:11:41;;;;;;;5.07;3.07;;;11.20;74.20;11.20;96919.00;;;;5039938;28;20228;-84
2023/05/18 02:14:10;;;;;;;3.13;2.77;;;11.10;74.10;11.20;96919.00;;;;5026393;28;20740;-84
2023/05/18 02:16:37;;;;;;;3.20;2.70;;;11.20;74.20;11.20;96922.00;;;;5043068;28;20275;-83
2023/05/18 02:19:04;;;;;;;3.93;2.67;;;11.10;74.20;11.20;96927.00;;;;5016177;28;20225;-84
2023/05/18 02:21:33;;;;;;;5.60;2.70;;;11.20;74.40;11.20;96920.00;;;;5041758;28;20372;-84
2023/05/18 02:24:00;;;;;;;4.17;2.83;;;11.10;74.40;11.20;96919.00;;;;5039952;28;20189;-84
2023/05/18 02:26:28;;;;;;;2.63;2.37;;;11.20;74.50;11.20;96924.00;;;;5033677;28;20197;-83
2023/05/18 02:28:55;;;;;;;3.83;2.43;;;11.10;74.40;11.20;96920.00;;;;5033098;28;20226;-84
2023/05/18 02:31:26;;;;;;;3.27;2.40;;;11.20;75.10;11.20;96919.00;;;;5035530;28;20576;-84
2023/05/18 02:33:53;;;;;;;2.83;2.53;;;11.10;74.30;11.20;96914.00;;;;5033667;28;20193;-84
2023/05/18 02:36:21;;;;;;;6.47;2.80;;;11.10;74.30;11.20;96920.00;;;;5035434;28;20303;-84
2023/05/18 02:38:48;;;;;;;3.63;2.60;;;11.10;74.50;11.20;96923.00;;;;5036767;28;20235;-84
2023/05/18 02:41:16;;;;;;;3.40;2.63;;;11.10;74.50;11.20;96918.00;;;;5038846;28;20670;-84
2023/05/18 02:43:43;;;;;;;3.87;2.30;;;11.10;74.40;11.20;96917.00;;;;5033012;28;20201;-84
2023/05/18 02:46:10;;;;;;;4.63;2.90;;;11.10;74.30;11.20;96921.00;;;;5031616;28;20225;-84
2023/05/18 02:48:39;;;;;;;4.57;2.90;;;11.10;74.30;11.10;96924.00;;;;5034398;28;20223;-84
2023/05/18 02:51:06;;;;;;;3.30;2.57;;;11.10;74.30;11.10;96911.00;;;;5036702;28;20192;-84
2023/05/18 02:53:33;;;;;;;5.70;2.93;;;11.10;74.40;11.10;96906.00;;;;5031237;28;20745;-84
2023/05/18 02:56:02;;;;;;;4.10;2.87;;;11.10;74.50;11.10;96907.00;;;;5042625;28;20315;-84
2023/05/18 02:58:29;;;;;;;2.83;2.63;;;11.10;74.60;11.10;96910.00;;;;5031737;28;20834;-83
2023/05/18 03:00:58;;;;;;;3.20;2.70;;;11.10;74.60;11.10;96911.00;;;;5000875;28;20199;-84
2023/05/18 03:03:25;;;;;;;4.00;2.90;;;11.00;74.50;11.10;96912.00;;;;5037075;28;20198;-85
2023/05/18 03:05:55;;;;;;;5.03;3.20;;;11.10;74.70;11.10;96909.00;;;;5031020;28;20287;-84
2023/05/18 03:08:22;;;;;;;3.97;2.57;;;11.10;74.50;11.10;96908.00;;;;5043629;28;20212;-83
2023/05/18 03:10:50;;;;;;;5.80;2.80;;;11.00;74.50;11.10;96908.00;;;;5029850;28;20675;-84
2023/05/18 03:13:17;;;;;;;3.23;2.93;;;11.00;74.50;11.10;96911.00;;;;5029588;28;20197;-84
2023/05/18 03:15:45;;;;;;;5.30;3.13;;;11.00;74.60;11.00;96907.00;;;;5033268;28;20628;-83
2023/05/18 03:18:13;;;;;;;4.33;3.07;;;11.00;74.50;11.00;96915.00;;;;5040730;28;20258;-84
2023/05/18 03:20:42;;;;;;;4.10;2.60;;;11.00;74.60;11.00;96908.00;;;;5037104;28;20638;-84
2023/05/18 03:23:10;;;;;;;3.30;2.97;;;11.00;74.70;11.00;96907.00;;;;5039075;28;20612;-84
2023/05/18 03:25:38;;;;;;;3.40;2.77;;;11.00;74.70;11.00;96907.00;;;;5044370;28;20197;-84
2023/05/18 03:28:05;;;;;;;4.10;3.07;;;11.00;74.80;11.00;96913.00;;;;5049134;28;20225;-84
2023/05/18 03:30:33;;;;;;;3.70;3.13;;;10.90;74.90;11.00;96911.00;;;;5042416;28;20233;-84
2023/05/18 03:33:02;;;;;;;3.80;3.20;;;11.00;74.90;11.00;96911.00;;;;5025469;28;20554;-84
2023/05/18 03:35:29;;;;;;;3.33;2.90;;;11.00;74.90;11.00;96910.00;;;;5020814;28;20228;-84
2023/05/18 03:37:56;;;;;;;3.37;2.60;;;11.00;74.80;11.00;96910.00;;;;5035760;28;20701;-84
2023/05/18 03:40:25;;;;;;;3.93;3.40;;;11.00;75.00;11.00;96915.00;;;;5052218;28;20278;-84
2023/05/18 03:42:52;;;;;;;4.40;3.17;;;11.00;75.00;11.00;96919.00;;;;5037241;28;20580;-84
2023/05/18 03:45:20;;;;;;;4.93;2.80;;;11.00;75.10;11.00;96915.00;;;;5029531;28;20693;-84
2023/05/18 03:47:47;;;;;;;4.23;3.40;;;11.00;75.20;11.00;96914.00;;;;5037214;28;20283;-83
2023/05/18 03:50:14;;;;;;;3.87;2.80;;;11.00;75.30;11.00;96921.00;;;;5032402;28;20194;-84
2023/05/18 03:52:44;;;;;;;7.70;2.90;;;11.00;75.30;11.00;96915.00;;;;5027859;28;20204;-84
2023/05/18 03:55:12;;;;;;;3.93;3.03;;;11.00;75.30;11.00;96918.00;;;;5033709;28;20228;-83
2023/05/18 03:57:40;;;;;;;3.53;2.90;;;11.00;75.30;11.10;96922.00;;;;5035133;28;20225;-83
2023/05/18 04:00:11;;;;;;;3.43;3.13;;;11.00;75.30;11.10;96917.00;;;;5035883;28;20204;-84
2023/05/18 04:02:40;;;;;;;3.87;3.10;;;11.00;75.40;11.10;96917.00;;;;5034746;28;20200;-84
2023/05/18 04:05:09;;;;;;;3.37;2.87;;;11.00;75.50;11.10;96924.00;;;;5031065;28;20210;-84
2023/05/18 04:07:42;;;;;;;3.27;2.97;;;11.00;75.50;11.10;96924.00;;;;5036528;28;20290;-84
2023/05/18 04:10:13;;;;;;;3.70;3.40;;;11.00;75.70;11.10;96917.00;;;;5047163;28;20279;-84
2023/05/18 04:12:42;;;;;;;3.97;3.03;;;11.10;75.80;11.20;96929.00;;;;5047639;28;20200;-84
2023/05/18 04:15:13;;;;;;;3.30;3.00;;;11.10;75.70;11.20;96934.00;;;;5035523;28;20277;-83
2023/05/18 04:17:44;;;;;;;4.53;3.37;;;11.10;75.80;11.20;96934.00;;;;5034688;28;20284;-84
2023/05/18 04:20:13;;;;;;;3.40;3.10;;;11.10;75.80;11.20;96932.00;;;;5033708;28;20304;-84
2023/05/18 04:22:46;;;;;;;4.97;3.23;;;11.10;75.80;11.20;96936.00;;;;5038405;28;20205;-84
2023/05/18 04:25:14;;;;;;;4.37;3.27;;;11.10;75.70;11.20;96932.00;;;;5040732;28;20203;-84
2023/05/18 04:27:44;;;;;;;3.13;2.83;;;11.10;75.90;11.20;96933.00;;;;5040015;28;20233;-84
2023/05/18 04:30:14;;;;;;;4.90;3.00;;;11.20;76.10;11.30;96935.00;;;;5056548;28;20201;-84
2023/05/18 04:32:42;;;;;;;3.60;3.30;;;11.20;76.10;11.30;96926.00;;;;5039141;28;20282;-84
2023/05/18 04:35:11;;;;;;;4.27;3.47;;;11.00;75.80;11.30;96929.00;;;;5044753;28;20673;-84
2023/05/18 04:37:40;;;;;;;4.80;3.10;;;11.20;76.10;11.30;96937.00;;;;5045349;28;20201;-84
2023/05/18 04:40:12;;;;;;;3.97;3.33;;;11.20;75.90;11.30;96938.00;;;;5041469;28;20193;-84
2023/05/18 04:42:43;;;;;;;4.33;3.87;;;11.20;75.90;11.30;96937.00;;;;5032219;28;20202;-84
2023/05/18 04:45:16;;;;;;;4.67;3.03;;;11.30;76.10;11.30;96948.00;;;;5037365;28;20231;-84
2023/05/18 04:47:45;;;;;;;4.00;3.23;;;11.30;76.20;11.40;96953.00;;;;5040486;28;20201;-84
2023/05/18 04:50:14;;;;;;;4.10;3.60;;;11.30;76.30;11.40;96951.00;;;;5050909;28;20254;-84
2023/05/18 04:52:46;;;;;;;3.83;3.23;;;11.30;76.40;11.50;96953.00;;;;5046414;28;20205;-84
2023/05/18 04:55:15;;;;;;;5.47;3.37;;;11.40;76.30;11.50;96958.00;;;;5043131;28;20216;-84
2023/05/18 04:57:43;;;;;;;4.13;3.30;;;11.40;76.40;11.50;96948.00;;;;5031722;28;20875;-84
2023/05/18 05:00:14;;;;;;;3.50;3.20;;;11.40;76.40;11.50;96949.00;;;;5053336;28;20754;-84
2023/05/18 05:02:41;;;;;;;5.43;3.83;;;11.40;76.50;11.60;96952.00;;;;5040058;28;20744;-85
2023/05/18 05:05:09;;;;;;;4.67;3.47;;;11.50;76.60;11.60;96948.00;;;;5049009;28;20280;-84
2023/05/18 05:07:37;;;;;;;6.17;3.67;;;11.50;76.70;11.70;96954.00;;;;5045265;28;20236;-84
2023/05/18 05:10:05;;;;;;;4.80;3.40;;;11.50;77.40;11.70;96952.00;;;;5046220;28;20276;-84
2023/05/18 05:12:32;;;;;;;5.77;3.90;;;11.60;76.80;11.70;96955.00;;;;5043618;28;20192;-84
2023/05/18 05:14:59;;;;;;;5.97;3.70;;;11.60;76.90;11.70;96959.00;;;;5036319;28;20284;-84
2023/05/18 05:17:28;;;;;;;3.60;3.30;;;11.60;77.60;11.80;96959.00;;;;5037415;28;20225;-84
2023/05/18 05:19:56;;;;;;;5.27;4.10;;;11.70;77.00;11.80;96961.00;;;;5043644;28;20231;-84
2023/05/18 05:22:23;;;;;;;4.20;3.80;;;11.70;77.70;11.90;96959.00;;;;5042618;28;20193;-84
2023/05/18 05:24:50;;;;;;;5.03;3.73;;;11.70;76.90;11.90;96958.00;;;;5043353;28;20615;-84
2023/05/18 05:27:18;;;;;;;4.27;3.70;;;11.80;76.90;11.90;96958.00;;;;5034699;28;20279;-84
2023/05/18 05:29:47;;;;;;;3.67;3.37;;;11.80;76.90;12.00;96966.00;;;;5034183;28;20688;-84
2023/05/18 05:32:14;;;;;;;4.20;3.60;;;11.80;76.90;12.00;96964.00;;;;5037711;28;20195;-84
2023/05/18 05:34:45;;;;;;;4.00;3.50;;;11.80;77.10;12.10;96959.00;;;;5043455;28;20287;-84
2023/05/18 05:37:13;;;;;;;5.53;3.67;;;11.80;77.20;12.20;96959.00;;;;5037918;28;20213;-82
2023/05/18 05:39:40;;;;;;;4.90;3.93;;;11.90;77.60;12.20;96959.00;;;;5043832;28;20227;-84
2023/05/18 05:42:08;;;;;;;5.03;3.90;;;12.00;77.90;12.40;96952.00;;;;5048372;28;20192;-83
2023/05/18 05:44:36;;;;;;;5.13;3.40;;;12.10;78.10;12.50;96963.00;;;;5035234;28;20201;-83
2023/05/18 05:47:03;;;;;;;4.70;4.20;;;12.20;78.40;12.60;96962.00;;;;5027902;28;20202;-83
2023/05/18 05:49:30;;;;;;;3.97;3.57;;;12.20;78.30;12.60;96965.00;;;;5037478;28;20595;-83
2023/05/18 05:51:59;;;;;;;5.20;3.83;;;12.30;78.20;12.70;96964.00;;;;5039080;28;20225;-83
2023/05/18 05:54:26;;;;;;;5.00;3.80;;;12.40;78.30;12.80;96966.00;;;;5040203;28;20292;-83
2023/05/18 05:56:54;;;;;;;4.13;3.73;;;12.50;78.40;12.90;96961.00;;;;5025560;28;20228;-83
2023/05/18 05:59:21;;;;;;;4.20;3.53;;;12.50;78.30;12.90;96966.00;;;;5037927;28;20259;-83
2023/05/18 06:01:48;;;;;;;4.43;4.03;;;12.60;78.20;13.00;96958.00;;;;5047825;28;20649;-83
2023/05/18 06:04:16;;;;;;;4.20;3.80;;;12.70;78.10;13.00;96965.00;;;;5031035;28;20197;-83
2023/05/18 06:06:43;;;;;;;4.03;3.63;;;12.70;77.90;13.10;96968.00;;;;5043616;28;20284;-83
2023/05/18 06:09:12;;;;;;;4.30;3.43;;;12.80;77.80;13.10;96967.00;;;;5043876;28;20221;-83
2023/05/18 06:11:39;;;;;;;4.17;3.50;;;12.80;77.60;13.10;96970.00;;;;5041143;28;20200;-84
2023/05/18 06:14:07;;;;;;;3.93;3.37;;;12.90;77.60;13.20;96969.00;;;;5044806;28;20200;-84
2023/05/18 06:16:34;;;;;;;4.63;3.53;;;12.90;77.40;13.20;96968.00;;;;5042644;28;20221;-82
2023/05/18 06:19:01;;;;;;;3.80;3.47;;;13.00;77.30;13.30;96962.00;;;;5043165;28;20220;-83
2023/05/18 06:21:29;;;;;;;3.93;3.53;;;13.00;77.20;13.30;96967.00;;;;5047329;28;20197;-83
2023/05/18 06:23:56;;;;;;;4.80;3.73;;;13.10;77.20;13.40;96971.00;;;;5046208;28;20198;-84
2023/05/18 06:26:26;;;;;;;4.27;3.70;;;13.10;77.20;13.50;96974.00;;;;5041197;28;20204;-83
2023/05/18 06:28:54;;;;;;;6.53;3.77;;;13.20;77.50;13.60;96978.00;;;;5043491;28;20228;-82
2023/05/18 06:31:21;;;;;;;4.13;3.73;;;13.30;77.70;13.70;96980.00;;;;5048359;28;20220;-83
2023/05/18 06:33:48;;;;;;;4.20;3.90;;;13.30;77.50;13.80;96976.00;;;;5039962;28;20192;-83
2023/05/18 06:36:16;;;;;;;3.60;3.30;;;13.40;77.50;13.90;96984.00;;;;5044501;28;20252;-82
2023/05/18 06:38:43;;;;;;;5.53;3.73;;;13.50;77.50;14.00;96975.00;;;;5041105;28;20718;-83
2023/05/18 06:41:10;;;;;;;4.93;3.20;;;13.60;77.70;14.10;96981.00;;;;5041183;28;20280;-83
2023/05/18 06:43:39;;;;;;;4.37;3.93;;;13.70;77.90;14.20;96977.00;;;;5034861;28;20280;-82
2023/05/18 06:46:07;;;;;;;4.07;3.77;;;13.80;77.70;14.40;96983.00;;;;5033252;28;20594;-82
2023/05/18 06:48:34;;;;;;;4.83;3.47;;;13.90;77.90;14.50;96985.00;;;;5038926;28;20221;-82
2023/05/18 06:51:02;;;;;;;4.37;3.57;;;14.00;77.80;14.70;96985.00;;;;5044904;28;20193;-82
2023/05/18 06:53:30;;;;;;;4.37;3.50;;;14.10;77.70;14.80;96991.00;;;;5058121;28;20280;-82
2023/05/18 06:55:58;;;;;;;4.27;3.80;;;14.30;77.60;14.90;96985.00;;;;5045111;28;20653;-82
2023/05/18 06:58:25;;;;;;;5.30;3.50;;;14.40;77.50;15.10;96978.00;;;;5048414;28;20300;-82
2023/05/18 07:00:54;;;;;;;3.97;3.57;;;14.50;77.50;15.20;96982.00;;;;5036465;28;20200;-82
2023/05/18 07:03:22;;;;;;;3.80;3.20;;;14.60;77.30;15.30;96986.00;;;;5051952;28;20684;-82
2023/05/18 07:05:50;;;;;;;3.97;3.50;;;14.70;77.00;15.40;96980.00;;;;5051224;28;20562;-82
2023/05/18 07:08:17;;;;;;;3.30;3.00;;;14.80;77.10;15.60;96982.00;;;;5046663;28;20212;-82
2023/05/18 07:10:45;;;;;;;6.07;3.30;;;14.90;77.20;15.70;96989.00;;;;5058667;28;20754;-82
2023/05/18 07:13:12;;;;;;;4.53;3.50;;;15.10;77.10;15.80;96991.00;;;;5050253;28;20196;-83
2023/05/18 07:15:39;;;;;;;3.67;3.33;;;15.20;77.00;16.00;96988.00;;;;5050226;28;20193;-82
2023/05/18 07:20:48;;;;;;;4.50;3.33;;;15.40;76.00;16.20;96997.00;;;;4993855;28;20210;-85
2023/05/18 07:23:17;;;;;;;4.07;3.33;;;15.60;76.20;16.30;96999.00;;;;5003071;28;20194;-85
2023/05/18 07:25:44;;;;;;;3.93;3.07;;;15.60;75.90;16.40;96991.00;;;;5007619;28;20289;-85
2023/05/18 07:28:12;;;;;;;6.23;3.40;;;15.80;75.70;16.50;96993.00;;;;5006454;28;20202;-84
2023/05/18 07:30:39;;;;;;;3.97;3.20;;;15.80;75.60;16.60;96997.00;;;;4990633;28;20191;-84
2023/05/18 07:33:07;;;;;;;3.33;3.00;;;16.00;75.50;16.70;96999.00;;;;5005331;28;20805;-84
2023/05/18 07:35:34;;;;;;;3.37;3.07;;;16.10;75.30;16.80;96999.00;;;;5003959;28;20205;-86
2023/05/18 07:38:03;;;;;;;4.30;2.90;;;16.10;75.30;16.90;97000.00;;;;4991796;28;20242;-85
2023/05/18 07:40:30;;;;;;;4.43;3.57;;;16.30;74.90;17.00;97003.00;;;;4998850;28;20224;-84
2023/05/18 07:42:58;;;;;;;4.97;3.07;;;16.40;74.90;17.20;97004.00;;;;4995021;28;20285;-85
2023/05/18 07:45:25;;;;;;;4.90;3.20;;;16.40;74.90;17.30;96999.00;;;;4995469;28;20281;-85
2023/05/18 07:47:53;;;;;;;3.50;3.20;;;16.60;74.80;17.40;97003.00;;;;4993771;28;20939;-85
2023/05/18 07:50:20;;;;;;;3.50;2.60;;;16.70;74.80;17.50;97012.00;;;;4995342;28;20301;-85
2023/05/18 07:52:47;;;;;;;4.57;3.03;;;16.80;74.50;17.60;96998.00;;;;4991696;28;20209;-84
2023/05/18 07:55:16;;;;;;;3.00;2.47;;;16.90;74.10;17.70;97002.00;;;;4992826;28;20585;-84
2023/05/18 07:57:43;;;;;;;3.00;2.70;;;17.00;73.50;17.70;96999.00;;;;4989487;28;20223;-84
2023/05/18 08:00:12;;;;;;;3.50;3.10;;;17.10;73.60;17.80;97000.00;;;;4991727;28;20218;-85
2023/05/18 08:02:40;;;;;;;3.17;2.87;;;17.10;73.20;17.90;97000.00;;;;5008420;28;20700;-85
2023/05/18 08:05:09;;;;;;;3.30;3.00;;;17.20;73.40;18.00;97006.00;;;;4992240;28;20649;-84
2023/05/18 08:07:37;;;;;;;3.00;2.70;;;17.30;74.10;18.10;97012.00;;;;4991698;28;20276;-84
2023/05/18 08:10:05;;;;;;;2.80;2.60;;;17.40;73.10;18.30;97012.00;;;;4989497;28;20225;-85
2023/05/18 08:12:34;;;;;;;2.93;2.50;;;17.50;72.90;18.40;97002.00;;;;4990491;28;20207;-86
2023/05/18 08:15:01;;;;;;;3.50;2.47;;;17.60;72.70;18.50;97008.00;;;;4999450;28;20208;-82
2023/05/18 08:17:29;;;;;;;2.80;2.57;;;17.70;72.40;18.70;97001.00;;;;4997281;28;20309;-82
2023/05/18 08:19:56;;;;;;;2.50;2.13;;;17.80;72.30;18.80;96999.00;;;;5004673;28;20503;-82
2023/05/18 08:22:23;;;;;;;5.73;2.80;;;18.00;72.30;19.00;97013.00;;;;5009038;28;20648;-82
2023/05/18 08:24:50;;;;;;;2.87;2.17;;;18.10;72.00;19.30;97005.00;;;;5006469;28;20643;-82
2023/05/18 08:27:18;;;;;;;4.50;2.17;;;18.30;71.70;19.50;97007.00;;;;4998935;28;20209;-82
2023/05/18 08:29:47;;;;;;;3.67;2.00;;;18.40;71.00;19.70;97005.00;;;;5004796;28;20249;-82
2023/05/18 08:32:15;;;;;;;3.70;2.20;;;18.60;70.20;19.70;97009.00;;;;5004989;28;20222;-82
2023/05/18 08:34:42;;;;;;;4.27;1.90;;;18.70;69.50;19.80;97015.00;;;;5013796;28;20659;-82
2023/05/18 08:37:10;;;;;;;2.30;1.73;;;18.80;69.40;19.90;97017.00;;;;4999169;28;20214;-82
2023/05/18 08:39:37;;;;;;;2.17;1.70;;;18.90;69.10;19.90;97014.00;;;;5005932;28;20235;-82
2023/05/18 08:42:19;;;;;;;1.97;1.70;;;19.00;69.40;20.10;97020.00;;;;4996388;28;20199;-82
2023/05/18 08:45:02;;;;;;;2.30;2.10;;;19.10;68.30;20.30;97015.00;;;;4995203;28;20256;-82
2023/05/18 08:47:32;;;;;;;6.67;2.20;;;19.30;68.20;20.40;97017.00;;;;5001901;28;20672;-81
2023/05/18 08:50:02;;;;;;;2.83;1.73;;;19.40;68.20;20.50;97016.00;;;;4995543;28;20790;-82
2023/05/18 08:52:36;;;;;;;2.63;1.90;;;19.50;68.00;20.60;97009.00;;;;4991951;28;20270;-82
2023/05/18 08:55:08;;;;;;;4.03;2.13;;;19.60;67.30;20.70;96998.00;;;;4994780;28;20534;-81
2023/05/18 08:57:37;;;;;;;3.37;2.00;;;19.60;61.60;20.70;97000.00;;;;5002196;28;20230;-82
2023/05/18 09:00:08;;;;;;;2.53;1.53;;;19.70;64.50;20.70;97005.00;;;;4993908;28;20222;-86
2023/05/18 09:02:38;;;;;;;2.57;1.80;;;19.80;63.90;20.70;97006.00;;;;4993207;28;20206;-85
2023/05/18 09:05:07;;;;;;;5.00;1.93;;;19.90;64.40;20.70;97001.00;;;;4990123;28;20218;-83
2023/05/18 09:07:36;;;;;;;3.13;1.60;;;19.90;64.40;20.70;96987.00;;;;4993392;28;20584;-84
2023/05/18 09:10:04;;;;;;;1.70;1.60;;;19.90;64.00;20.70;96997.00;;;;5000859;28;20657;-85
2023/05/18 09:12:35;;;;;;;4.17;1.70;;;19.90;64.30;20.70;96988.00;;;;5002682;28;20266;-85
2023/05/18 09:15:06;;;;;;;3.53;1.60;;;20.00;63.20;20.60;96997.00;;;;5007142;28;20222;-84
2023/05/18 09:17:34;;;;;;;2.37;1.80;;;20.00;63.70;20.70;96989.00;;;;4997474;28;20703;-85
2023/05/18 09:20:05;;;;;;;1.43;1.33;;;20.00;64.30;20.70;96990.00;;;;4993205;28;20241;-85
2023/05/18 09:22:34;;;;;;;2.40;1.50;;;20.00;63.80;20.80;96996.00;;;;4992478;28;20241;-86
2023/05/18 09:25:02;;;;;;;2.70;1.83;;;20.10;64.10;21.10;97000.00;;;;4994602;28;20212;-85
2023/05/18 09:27:30;;;;;;;2.93;1.67;;;20.10;64.70;21.40;97001.00;;;;4994773;28;20267;-85
2023/05/18 09:29:58;;;;;;;3.17;1.77;;;20.30;64.60;21.50;97004.00;;;;4990802;28;20253;-86
2023/05/18 09:32:28;;;;;;;3.57;1.60;;;20.40;64.20;21.60;97006.00;;;;4993631;28;20198;-85
2023/05/18 09:35:03;;;;;;;2.73;1.90;;;20.50;63.80;21.70;97000.00;;;;4985874;28;20190;-84
2023/05/18 09:37:31;;;;;;;3.17;1.70;;;20.60;63.30;21.70;97014.00;;;;4989852;28;20220;-85
2023/05/18 09:40:01;;;;;;;3.73;1.47;;;20.70;63.10;21.60;97008.00;;;;4993016;28;20689;-84
2023/05/18 09:42:36;;;;;;;1.67;1.30;;;20.70;62.50;21.60;97013.00;;;;4994959;28;20217;-85
2023/05/18 09:45:04;;;;;;;1.67;1.50;;;20.80;61.70;21.70;97008.00;;;;4994725;28;20202;-86
2023/05/18 09:47:34;;;;;;;3.80;1.43;;;20.90;62.30;21.80;96993.00;;;;4994133;28;20209;-88
2023/05/18 09:50:02;;;;;;;3.50;1.33;;;20.90;61.80;21.90;97007.00;;;;5010392;28;20246;-88
2023/05/18 09:52:30;;;;;;;4.13;1.77;;;21.00;61.40;22.00;97006.00;;;;4994083;28;20209;-88
2023/05/18 09:55:00;;;;;;;3.17;1.43;;;21.00;61.50;22.00;97007.00;;;;4993751;28;20289;-88
2023/05/18 09:57:28;;;;;;;3.50;1.57;;;21.10;60.50;22.10;97017.00;;;;4991496;28;20329;-85
2023/05/18 10:00:09;;;;;;;1.90;1.30;;;21.10;61.10;22.10;97010.00;;;;4995135;28;20867;-84
2023/05/18 10:02:41;;;;;;;6.33;1.93;;;21.20;59.90;22.10;96999.00;;;;4993225;28;20622;-85
2023/05/18 10:05:20;;;;;;;2.97;1.80;;;21.20;60.00;22.10;97009.00;;;;4995035;28;20585;-85
2023/05/18 10:07:47;;;;;;;2.63;1.30;;;21.20;59.00;22.10;96993.00;;;;4998706;28;20206;-85
2023/05/18 10:10:20;;;;;;;1.87;1.50;;;21.30;60.40;22.20;97001.00;;;;4996256;28;20211;-86
2023/05/18 10:12:48;;;;;;;1.90;1.50;;;21.30;59.60;22.30;97000.00;;;;5002015;28;20214;-85
2023/05/18 10:15:16;;;;;;;2.20;1.47;;;21.30;59.80;22.30;97004.00;;;;5004048;28;20636;-85
2023/05/18 10:17:49;;;;;;;7.83;1.80;;;21.40;60.00;22.30;97000.00;;;;5004246;28;20758;-87
2023/05/18 10:20:20;;;;;;;3.50;1.70;;;21.40;59.40;22.30;96992.00;;;;5000441;28;20265;-86
2023/05/18 10:22:49;;;;;;;3.00;1.83;;;21.40;60.00;22.40;97009.00;;;;5002029;28;20416;-84
2023/05/18 10:25:21;;;;;;;3.37;1.70;;;21.40;59.50;22.30;97005.00;;;;4997964;28;20207;-85
2023/05/18 10:27:51;;;;;;;2.57;1.53;;;21.50;58.70;22.30;97006.00;;;;4997621;28;20225;-84
2023/05/18 10:30:20;;;;;;;2.63;1.87;;;21.50;58.50;22.20;97006.00;;;;5005331;28;20691;-85
2023/05/18 10:32:53;;;;;;;2.53;1.30;;;21.50;58.90;22.20;97008.00;;;;5012396;28;20206;-85
2023/05/18 10:35:22;;;;;;;2.07;1.63;;;21.50;59.20;22.20;96996.00;;;;5001800;28;20190;-87
2023/05/18 10:37:53;;;;;;;4.83;2.00;;;21.50;58.70;22.30;96993.00;;;;5013507;28;20221;-85
2023/05/18 10:40:23;;;;;;;5.37;1.60;;;21.50;58.90;22.30;96993.00;;;;5012373;28;20214;-84
2023/05/18 10:42:52;;;;;;;5.03;1.63;;;21.50;59.70;22.50;97004.00;;;;5008315;28;20659;-85
2023/05/18 10:45:20;;;;;;;3.27;1.60;;;21.60;59.40;22.50;96999.00;;;;4994734;28;20727;-86
2023/05/18 10:47:53;;;;;;;4.33;1.60;;;21.60;59.30;22.60;97000.00;;;;5000186;28;20447;-85
2023/05/18 10:50:25;;;;;;;2.77;1.83;;;21.70;58.40;22.50;97009.00;;;;4996915;28;20282;-86
2023/05/18 10:52:57;;;;;;;2.90;1.43;;;21.70;58.80;22.50;97003.00;;;;4995690;28;20264;-85
2023/05/18 10:55:27;;;;;;;4.20;1.90;;;21.70;58.60;22.50;97001.00;;;;4998058;28;20301;-86
2023/05/18 10:58:03;;;;;;;2.60;1.50;;;21.70;58.90;22.40;96991.00;;;;4986203;28;20229;-85
2023/05/18 11:00:36;;;;;;;1.87;1.30;;;21.70;58.70;22.40;96999.00;;;;4998693;28;20309;-85
2023/05/18 11:03:11;;;;;;;2.27;1.80;;;21.70;58.70;22.40;96999.00;;;;4991794;28;20268;-86
2023/05/18 11:05:40;;;;;;;2.33;1.60;;;21.70;58.40;22.40;96997.00;;;;5004295;28;20206;-86